Time;durP1;ratioP1;P1;durP2;ratioP2;P2;SDS_P1;SDS_P2;PMS_P1;PMS_P2;Temp;Humidity;BMP_temperature;BMP_pressure;BME280_temperature;BME280_humidity;BME280_pressure;Samples;Min_cycle;Max_cycle;Signal;HPM_P1;HPM_P2
2021/07/29 00:00:39;;;;;;;3.83;1.95;;;15.60;90.40;;;;;;4945831;28;20036;-73
2021/07/29 00:03:05;;;;;;;2.63;2.25;;;15.60;90.50;;;;;;4947398;28;20142;-73
2021/07/29 00:05:33;;;;;;;3.58;2.28;;;15.50;90.70;;;;;;4959605;28;20027;-73
2021/07/29 00:07:59;;;;;;;2.70;2.10;;;15.40;91.40;;;;;;4941004;28;20035;-73
2021/07/29 00:10:26;;;;;;;4.68;2.38;;;15.50;91.20;;;;;;4943297;28;20047;-73
2021/07/29 00:12:52;;;;;;;3.70;2.47;;;15.60;91.10;;;;;;4944503;28;20045;-73
2021/07/29 00:15:17;;;;;;;3.53;2.20;;;15.60;91.10;;;;;;4941870;28;20993;-73
2021/07/29 00:20:21;;;;;;;2.70;2.23;;;15.70;90.90;;;;;;4942733;28;20035;-73
2021/07/29 00:22:49;;;;;;;4.53;2.50;;;15.70;91.00;;;;;;4944069;28;20126;-73
2021/07/29 00:25:15;;;;;;;4.38;2.30;;;15.70;90.90;;;;;;4947741;28;20062;-73
2021/07/29 00:27:41;;;;;;;2.40;2.10;;;15.80;91.00;;;;;;4945702;28;20498;-73
2021/07/29 00:30:08;;;;;;;4.20;2.30;;;15.80;91.00;;;;;;4946342;28;20020;-74
2021/07/29 00:32:34;;;;;;;3.10;2.20;;;15.80;90.80;;;;;;4961567;28;20145;-73
2021/07/29 00:35:03;;;;;;;3.33;2.30;;;15.80;90.80;;;;;;4964322;28;20030;-73
2021/07/29 00:37:29;;;;;;;2.70;1.90;;;15.80;90.80;;;;;;4966180;28;20023;-73
2021/07/29 00:39:55;;;;;;;3.90;2.08;;;15.80;90.70;;;;;;4967857;28;20508;-73
2021/07/29 00:42:21;;;;;;;2.47;2.05;;;15.90;90.70;;;;;;4964863;28;20050;-73
2021/07/29 00:44:47;;;;;;;2.42;2.08;;;15.90;90.60;;;;;;4962255;28;20038;-73
2021/07/29 00:47:15;;;;;;;4.32;2.15;;;15.90;90.70;;;;;;4964594;28;20037;-73
2021/07/29 00:49:41;;;;;;;4.18;2.33;;;15.80;91.00;;;;;;4962596;28;20027;-73
2021/07/29 00:52:06;;;;;;;3.15;2.38;;;15.80;90.80;;;;;;4963490;28;20037;-73
2021/07/29 00:54:32;;;;;;;2.85;2.40;;;15.90;90.70;;;;;;4966030;28;20057;-73
2021/07/29 00:56:59;;;;;;;7.35;2.17;;;15.80;90.80;;;;;;4967198;28;20047;-73
2021/07/29 00:59:28;;;;;;;5.07;2.20;;;15.90;90.90;;;;;;4965349;28;20526;-73
2021/07/29 01:01:53;;;;;;;2.47;1.85;;;15.80;90.90;;;;;;4964023;28;20492;-73
2021/07/29 01:04:19;;;;;;;3.55;1.85;;;15.80;91.00;;;;;;4964988;28;20126;-74
2021/07/29 01:06:45;;;;;;;7.43;2.20;;;15.90;90.90;;;;;;4967824;28;20058;-73
2021/07/29 01:09:11;;;;;;;7.70;1.80;;;15.90;91.00;;;;;;4955597;28;20033;-73
2021/07/29 01:11:41;;;;;;;4.80;2.95;;;15.90;90.80;;;;;;4959188;28;20038;-73
2021/07/29 01:14:07;;;;;;;3.10;2.00;;;15.90;91.00;;;;;;4964736;28;20022;-73
2021/07/29 01:16:34;;;;;;;3.40;2.50;;;15.90;91.20;;;;;;4963142;28;20037;-74
2021/07/29 01:19:01;;;;;;;2.95;2.15;;;15.80;91.20;;;;;;4961582;28;20387;-73
2021/07/29 01:21:28;;;;;;;2.95;2.10;;;15.90;91.20;;;;;;4965053;28;20089;-73
2021/07/29 01:23:54;;;;;;;4.13;2.22;;;15.80;91.20;;;;;;4960123;28;20023;-73
2021/07/29 01:26:20;;;;;;;7.30;2.45;;;15.80;91.40;;;;;;4967683;28;20049;-73
2021/07/29 01:28:46;;;;;;;4.30;2.10;;;15.80;91.40;;;;;;4956288;28;20038;-73
2021/07/29 01:31:11;;;;;;;5.22;2.97;;;15.90;91.30;;;;;;4987706;28;20047;-73
2021/07/29 01:33:38;;;;;;;4.90;2.33;;;15.90;91.20;;;;;;4966274;28;20054;-73
2021/07/29 01:36:04;;;;;;;4.88;2.75;;;15.90;91.20;;;;;;4964932;28;20034;-73
2021/07/29 01:38:30;;;;;;;3.72;2.75;;;15.90;91.20;;;;;;4964998;28;20418;-73
2021/07/29 01:40:57;;;;;;;3.90;2.83;;;15.90;91.20;;;;;;4963649;28;20031;-73
2021/07/29 01:43:23;;;;;;;6.80;3.60;;;15.90;91.20;;;;;;4959201;28;20039;-73
2021/07/29 01:45:49;;;;;;;4.97;3.05;;;15.90;91.40;;;;;;4962577;28;20434;-73
2021/07/29 01:48:15;;;;;;;3.72;2.58;;;15.90;91.30;;;;;;4968797;28;20046;-73
2021/07/29 01:50:43;;;;;;;4.57;2.78;;;15.90;91.30;;;;;;4964200;28;20573;-73
2021/07/29 01:53:09;;;;;;;3.55;2.58;;;15.90;91.30;;;;;;4957460;28;20121;-74
2021/07/29 01:55:34;;;;;;;3.50;2.72;;;16.00;91.30;;;;;;4964736;28;20170;-73
2021/07/29 01:58:00;;;;;;;6.03;2.63;;;15.90;91.20;;;;;;4959693;28;20046;-73
2021/07/29 02:00:26;;;;;;;9.88;2.80;;;16.00;91.30;;;;;;4955339;28;20045;-74
2021/07/29 02:02:52;;;;;;;6.00;2.60;;;15.90;91.20;;;;;;4969850;28;20026;-74
2021/07/29 02:05:17;;;;;;;2.72;2.25;;;16.00;91.30;;;;;;4981254;28;20096;-74
2021/07/29 02:07:43;;;;;;;3.45;2.60;;;15.90;91.40;;;;;;4962070;28;20026;-74
2021/07/29 02:10:09;;;;;;;4.50;2.97;;;15.90;91.50;;;;;;4960216;28;20524;-74
2021/07/29 02:12:34;;;;;;;7.43;3.00;;;15.90;91.40;;;;;;4966128;28;20034;-73
2021/07/29 02:15:00;;;;;;;4.88;2.78;;;15.90;91.60;;;;;;4958150;28;20126;-73
2021/07/29 02:17:26;;;;;;;5.75;3.42;;;15.80;91.70;;;;;;4964286;28;20061;-73
2021/07/29 02:19:52;;;;;;;5.18;2.88;;;15.70;92.00;;;;;;4962802;28;20031;-73
2021/07/29 02:22:18;;;;;;;2.97;2.28;;;15.70;92.20;;;;;;4962813;28;20414;-73
2021/07/29 02:24:44;;;;;;;4.78;2.53;;;15.80;92.00;;;;;;4962608;28;20133;-73
2021/07/29 02:27:09;;;;;;;3.50;2.20;;;15.80;91.90;;;;;;4962795;28;20165;-73
2021/07/29 02:29:35;;;;;;;6.80;2.70;;;15.80;91.80;;;;;;4964213;28;20072;-73
2021/07/29 02:32:01;;;;;;;3.10;2.40;;;15.80;91.80;;;;;;4958868;28;20623;-73
2021/07/29 02:34:27;;;;;;;3.65;2.50;;;15.80;91.60;;;;;;4962668;28;20030;-73
2021/07/29 02:36:52;;;;;;;5.65;2.55;;;15.80;91.50;;;;;;4965248;28;20031;-71
2021/07/29 02:39:18;;;;;;;3.92;2.28;;;15.80;91.30;;;;;;4963739;28;20026;-73
2021/07/29 02:41:44;;;;;;;3.78;2.60;;;15.80;91.30;;;;;;4965512;28;20038;-73
2021/07/29 02:44:09;;;;;;;5.28;2.60;;;15.80;91.20;;;;;;4962706;28;20066;-73
2021/07/29 02:46:35;;;;;;;5.47;2.70;;;15.80;91.10;;;;;;4964821;28;20090;-73
2021/07/29 02:49:01;;;;;;;2.78;2.50;;;15.80;91.00;;;;;;4961131;28;20027;-73
2021/07/29 02:51:26;;;;;;;5.03;2.22;;;15.80;91.00;;;;;;4962178;28;20038;-72
2021/07/29 02:53:52;;;;;;;3.65;2.45;;;15.70;91.20;;;;;;4962767;28;20027;-73
2021/07/29 02:56:18;;;;;;;10.73;2.50;;;15.70;91.30;;;;;;4962925;28;20038;-73
2021/07/29 02:58:47;;;;;;;4.05;2.47;;;15.70;91.40;;;;;;4957093;28;21177;-72
2021/07/29 03:01:13;;;;;;;7.20;3.28;;;15.60;91.50;;;;;;4959639;28;20055;-73
2021/07/29 03:03:39;;;;;;;3.95;2.35;;;15.60;91.60;;;;;;4966052;28;21424;-73
2021/07/29 03:06:04;;;;;;;3.50;2.20;;;15.60;91.70;;;;;;4957807;28;20031;-73
2021/07/29 03:08:30;;;;;;;2.67;2.47;;;15.60;91.60;;;;;;4957550;28;20038;-72
2021/07/29 03:10:58;;;;;;;3.25;2.47;;;15.60;91.60;;;;;;4960865;28;20031;-73
2021/07/29 03:13:24;;;;;;;7.40;2.67;;;15.60;91.70;;;;;;4961472;28;20019;-73
2021/07/29 03:15:50;;;;;;;4.80;3.25;;;15.60;91.80;;;;;;4965416;28;20047;-73
2021/07/29 03:18:16;;;;;;;4.18;2.50;;;15.70;91.70;;;;;;4964050;28;20050;-73
2021/07/29 03:20:42;;;;;;;5.55;2.65;;;15.70;91.80;;;;;;4959361;28;20497;-73
2021/07/29 03:23:09;;;;;;;10.32;3.15;;;15.70;91.90;;;;;;4964639;28;20027;-73
2021/07/29 03:25:35;;;;;;;4.70;2.83;;;15.60;91.90;;;;;;4968041;28;20027;-73
2021/07/29 03:28:01;;;;;;;3.50;2.20;;;15.60;92.10;;;;;;4967892;28;20077;-73
2021/07/29 03:30:26;;;;;;;3.13;2.35;;;15.70;92.00;;;;;;4969343;28;20037;-73
2021/07/29 03:32:52;;;;;;;3.88;2.60;;;15.70;91.90;;;;;;4966963;28;20033;-73
2021/07/29 03:35:18;;;;;;;5.78;2.22;;;15.70;91.70;;;;;;4961246;28;20059;-73
2021/07/29 03:37:44;;;;;;;6.05;2.55;;;15.70;91.90;;;;;;4965895;28;20085;-72
2021/07/29 03:40:10;;;;;;;3.92;2.17;;;15.60;92.00;;;;;;4964735;28;20034;-73
2021/07/29 03:42:36;;;;;;;2.75;2.20;;;15.70;91.90;;;;;;4963035;28;20014;-73
2021/07/29 03:45:03;;;;;;;3.05;2.22;;;15.70;91.80;;;;;;4962212;28;20045;-72
2021/07/29 03:47:29;;;;;;;3.53;2.85;;;15.70;91.70;;;;;;4967710;28;20109;-72
2021/07/29 03:49:54;;;;;;;3.13;2.40;;;15.70;91.70;;;;;;4962532;28;21805;-72
2021/07/29 03:52:20;;;;;;;3.08;2.40;;;15.70;91.80;;;;;;4960304;28;20064;-72
2021/07/29 03:54:50;;;;;;;2.55;2.35;;;15.70;92.30;;;;;;4964798;28;20042;-71
2021/07/29 03:57:16;;;;;;;3.72;2.20;;;15.70;92.40;;;;;;4962376;28;20033;-72
2021/07/29 03:59:42;;;;;;;2.40;2.20;;;15.70;92.40;;;;;;4969389;28;20475;-72
2021/07/29 04:02:10;;;;;;;4.47;2.22;;;15.70;92.20;;;;;;4957315;28;20041;-72
2021/07/29 04:04:40;;;;;;;3.85;2.20;;;15.70;92.10;;;;;;4964164;28;20030;-72
2021/07/29 04:07:06;;;;;;;5.10;2.42;;;15.80;92.10;;;;;;4967346;28;20038;-72
2021/07/29 04:09:33;;;;;;;4.63;2.30;;;15.80;92.10;;;;;;4962213;28;20038;-73
2021/07/29 04:12:00;;;;;;;3.28;2.35;;;15.80;92.20;;;;;;4962304;28;20015;-73
2021/07/29 04:14:26;;;;;;;5.65;2.30;;;15.80;92.00;;;;;;4966131;28;20026;-72
2021/07/29 04:16:53;;;;;;;4.10;2.20;;;15.90;92.00;;;;;;4964708;28;20026;-72
2021/07/29 04:19:19;;;;;;;3.88;2.10;;;15.90;91.90;;;;;;4966273;28;20062;-74
2021/07/29 04:21:45;;;;;;;4.75;2.10;;;16.00;92.10;;;;;;4962512;28;20034;-73
2021/07/29 04:24:10;;;;;;;8.30;2.70;;;16.00;92.00;;;;;;4962474;28;20703;-73
2021/07/29 04:26:37;;;;;;;3.47;2.10;;;16.00;91.90;;;;;;4968944;28;20034;-73
2021/07/29 04:29:03;;;;;;;3.75;2.67;;;16.00;91.80;;;;;;4965962;28;20121;-73
2021/07/29 04:31:28;;;;;;;5.50;2.55;;;16.00;91.80;;;;;;4963758;28;20126;-73
2021/07/29 04:33:54;;;;;;;6.20;3.08;;;16.00;91.80;;;;;;4962735;28;20556;-73
2021/07/29 04:36:19;;;;;;;4.78;2.50;;;16.00;91.90;;;;;;4963868;28;20050;-73
2021/07/29 04:38:45;;;;;;;3.72;2.53;;;16.00;91.90;;;;;;4963731;28;20061;-73
2021/07/29 04:41:11;;;;;;;5.95;2.80;;;16.00;91.80;;;;;;4961731;28;20077;-73
2021/07/29 04:43:36;;;;;;;7.80;2.67;;;16.10;91.80;;;;;;4992379;28;20022;-74
2021/07/29 04:46:03;;;;;;;4.68;2.60;;;16.00;91.80;;;;;;4961140;28;20482;-73
2021/07/29 04:48:30;;;;;;;3.45;2.60;;;16.10;91.90;;;;;;4967598;28;20033;-73
2021/07/29 04:51:03;;;;;;;6.28;2.63;;;16.10;92.00;;;;;;4963984;28;20458;-74
2021/07/29 04:53:30;;;;;;;7.38;2.40;;;16.10;91.90;;;;;;4959105;28;20034;-73
2021/07/29 04:55:55;;;;;;;8.18;2.95;;;16.20;91.90;;;;;;4969640;28;20521;-72
2021/07/29 04:58:21;;;;;;;3.88;2.47;;;16.20;91.90;;;;;;4965028;28;20064;-73
2021/07/29 05:00:47;;;;;;;4.05;2.63;;;16.30;92.00;;;;;;4965050;28;20035;-74
2021/07/29 05:03:12;;;;;;;3.58;2.70;;;16.30;92.00;;;;;;4962739;28;20031;-72
2021/07/29 05:05:38;;;;;;;6.65;2.90;;;16.30;92.00;;;;;;4963774;28;20051;-74
2021/07/29 05:08:04;;;;;;;3.03;2.60;;;16.30;92.00;;;;;;4965720;28;20425;-73
2021/07/29 05:10:30;;;;;;;4.40;2.55;;;16.30;92.00;;;;;;4963846;28;20038;-73
2021/07/29 05:12:56;;;;;;;4.05;2.83;;;16.30;92.10;;;;;;4962891;28;20030;-73
2021/07/29 05:15:22;;;;;;;5.07;2.72;;;16.40;92.00;;;;;;4961559;28;20046;-73
2021/07/29 05:17:54;;;;;;;3.90;2.90;;;16.40;91.80;;;;;;4964933;28;20038;-74
2021/07/29 05:20:23;;;;;;;6.85;3.05;;;16.40;91.90;;;;;;4963041;28;20031;-74
2021/07/29 05:22:49;;;;;;;6.38;3.20;;;16.50;91.90;;;;;;4965048;28;20374;-74
2021/07/29 05:25:22;;;;;;;8.23;3.28;;;16.50;91.80;;;;;;4963553;28;20560;-73
2021/07/29 05:27:52;;;;;;;4.65;3.30;;;16.50;91.90;;;;;;4965853;28;20031;-73
2021/07/29 05:30:19;;;;;;;6.00;3.38;;;16.60;92.00;;;;;;4960771;28;20055;-73
2021/07/29 05:32:45;;;;;;;8.35;4.22;;;16.60;92.00;;;;;;4956607;28;20611;-73
2021/07/29 05:35:11;;;;;;;8.77;4.43;;;16.60;92.00;;;;;;4966495;28;20025;-73
2021/07/29 05:37:37;;;;;;;10.05;4.35;;;16.70;92.20;;;;;;4958253;28;20432;-73
2021/07/29 05:40:07;;;;;;;8.35;4.57;;;16.70;92.40;;;;;;4957198;28;20054;-74
2021/07/29 05:42:33;;;;;;;8.65;4.50;;;16.80;92.40;;;;;;4966021;28;20070;-73
2021/07/29 05:45:00;;;;;;;6.70;4.40;;;16.80;92.00;;;;;;4962783;28;20054;-73
2021/07/29 05:47:26;;;;;;;7.88;4.38;;;16.90;92.20;;;;;;4955738;28;20049;-74
2021/07/29 05:49:51;;;;;;;5.50;4.03;;;17.00;92.10;;;;;;4958672;28;20051;-74
2021/07/29 05:52:17;;;;;;;5.50;3.40;;;17.10;92.00;;;;;;4964708;28;20405;-74
2021/07/29 05:54:43;;;;;;;5.25;3.55;;;17.20;91.70;;;;;;4960213;28;20178;-74
2021/07/29 05:57:09;;;;;;;4.85;3.35;;;17.20;91.90;;;;;;4960435;28;20034;-74
2021/07/29 05:59:34;;;;;;;6.30;3.45;;;17.30;91.90;;;;;;4963530;28;20034;-75
2021/07/29 06:02:01;;;;;;;4.60;3.00;;;17.40;91.80;;;;;;4958667;28;20035;-76
2021/07/29 06:04:27;;;;;;;3.60;3.08;;;17.50;91.50;;;;;;4963980;28;20121;-74
2021/07/29 06:06:53;;;;;;;4.18;2.83;;;17.60;91.60;;;;;;4966247;28;20112;-75
2021/07/29 06:09:19;;;;;;;5.07;2.83;;;17.70;91.50;;;;;;4970124;28;20626;-74
2021/07/29 06:11:45;;;;;;;4.07;2.60;;;17.90;91.60;;;;;;4963315;28;20043;-75
2021/07/29 06:14:10;;;;;;;4.25;2.75;;;18.00;91.30;;;;;;4960288;28;20041;-75
2021/07/29 06:16:36;;;;;;;3.17;2.60;;;18.10;90.90;;;;;;4958924;28;20141;-75
2021/07/29 06:19:15;;;;;;;4.25;3.10;;;18.10;90.80;;;;;;4958219;28;20026;-74
2021/07/29 06:21:41;;;;;;;3.88;2.50;;;18.20;90.60;;;;;;4958573;28;20531;-75
2021/07/29 06:24:07;;;;;;;5.68;2.85;;;18.30;90.40;;;;;;4968011;28;20027;-75
2021/07/29 06:26:33;;;;;;;4.55;2.85;;;18.30;90.20;;;;;;4948166;28;20035;-72
2021/07/29 06:28:58;;;;;;;3.50;2.90;;;18.50;88.80;;;;;;4961652;28;20069;-75
2021/07/29 06:31:24;;;;;;;2.83;2.33;;;18.50;88.50;;;;;;4957147;28;20053;-74
2021/07/29 06:33:50;;;;;;;5.03;2.75;;;18.60;88.60;;;;;;4966045;28;20039;-74
2021/07/29 06:36:16;;;;;;;5.68;2.83;;;18.60;87.60;;;;;;4960365;28;20658;-75
2021/07/29 06:38:42;;;;;;;3.58;2.67;;;18.70;88.10;;;;;;4962928;28;20410;-75
2021/07/29 06:41:08;;;;;;;5.95;3.30;;;18.80;88.70;;;;;;4962329;28;20027;-75
2021/07/29 06:43:35;;;;;;;4.75;2.85;;;18.80;87.70;;;;;;4964450;28;20026;-75
2021/07/29 06:46:05;;;;;;;5.85;2.90;;;18.80;87.50;;;;;;4966013;28;20070;-74
2021/07/29 06:48:32;;;;;;;4.65;2.72;;;18.90;87.00;;;;;;4964951;28;20154;-74
2021/07/29 06:51:15;;;;;;;3.53;2.80;;;19.00;85.90;;;;;;4967407;28;20027;-75
2021/07/29 06:53:41;;;;;;;5.65;2.90;;;19.00;86.50;;;;;;4969674;28;20027;-76
2021/07/29 06:56:08;;;;;;;3.65;2.85;;;19.10;86.50;;;;;;4966794;28;20097;-75
2021/07/29 06:58:34;;;;;;;3.17;2.58;;;19.20;86.10;;;;;;4967904;28;20035;-75
2021/07/29 07:01:04;;;;;;;4.30;2.53;;;19.30;84.00;;;;;;4960417;28;20114;-75
2021/07/29 07:03:31;;;;;;;2.47;2.28;;;19.30;84.00;;;;;;4940834;28;20024;-75
2021/07/29 07:06:07;;;;;;;3.20;2.45;;;19.30;82.20;;;;;;4948137;28;20038;-75
2021/07/29 07:08:33;;;;;;;3.15;2.85;;;19.30;82.30;;;;;;4942716;28;20085;-75
2021/07/29 07:10:59;;;;;;;6.45;2.72;;;19.30;82.40;;;;;;4945957;28;20031;-75
2021/07/29 07:13:26;;;;;;;5.15;2.47;;;19.30;80.70;;;;;;4948978;28;20039;-75
2021/07/29 07:15:52;;;;;;;3.30;2.25;;;19.40;81.70;;;;;;4943694;28;20437;-75
2021/07/29 07:18:18;;;;;;;4.00;2.20;;;19.40;82.20;;;;;;4942476;28;20030;-75
2021/07/29 07:20:44;;;;;;;3.42;2.38;;;19.40;82.20;;;;;;4940462;28;20023;-75
2021/07/29 07:23:09;;;;;;;3.63;2.42;;;19.50;80.70;;;;;;4941680;28;20106;-75
2021/07/29 07:25:36;;;;;;;3.40;2.67;;;19.60;81.30;;;;;;4941189;28;20031;-75
2021/07/29 07:28:03;;;;;;;5.43;2.65;;;19.60;81.90;;;;;;4943266;28;20031;-74
2021/07/29 07:30:28;;;;;;;3.67;2.42;;;19.70;82.40;;;;;;4947787;28;20421;-75
2021/07/29 07:32:54;;;;;;;4.10;2.35;;;19.90;80.90;;;;;;4966061;28;20042;-75
2021/07/29 07:35:20;;;;;;;4.05;2.80;;;19.90;79.40;;;;;;4968218;28;20070;-75
2021/07/29 07:37:46;;;;;;;4.60;2.40;;;20.00;80.40;;;;;;4961197;28;20031;-75
2021/07/29 07:40:12;;;;;;;3.33;2.65;;;20.10;78.30;;;;;;4976426;28;20031;-75
2021/07/29 07:42:38;;;;;;;2.85;2.30;;;20.20;78.50;;;;;;4968109;28;20027;-76
2021/07/29 07:45:04;;;;;;;2.88;2.38;;;20.20;78.10;;;;;;4966926;28;20038;-75
2021/07/29 07:47:32;;;;;;;3.10;2.35;;;20.30;76.80;;;;;;4966564;28;20034;-76
2021/07/29 07:49:58;;;;;;;3.67;2.42;;;20.40;77.20;;;;;;4967465;28;20034;-76
2021/07/29 07:52:24;;;;;;;2.97;2.60;;;20.50;72.60;;;;;;4964064;28;20027;-76
2021/07/29 07:54:49;;;;;;;3.58;1.95;;;20.50;73.30;;;;;;4964703;28;20034;-75
2021/07/29 07:57:15;;;;;;;2.20;1.95;;;20.50;72.50;;;;;;4990726;28;20485;-76
2021/07/29 07:59:41;;;;;;;5.18;2.28;;;20.40;67.90;;;;;;4968355;28;20031;-75
2021/07/29 08:02:07;;;;;;;3.90;2.17;;;20.30;71.60;;;;;;4940832;28;20070;-76
2021/07/29 08:04:33;;;;;;;3.10;2.45;;;20.30;69.70;;;;;;4943092;28;20027;-75
2021/07/29 08:06:59;;;;;;;2.30;2.10;;;20.30;69.00;;;;;;4945079;28;20110;-76
2021/07/29 08:09:25;;;;;;;2.95;2.10;;;20.30;68.80;;;;;;4938389;28;20038;-76
2021/07/29 08:11:51;;;;;;;3.83;2.55;;;20.30;69.20;;;;;;4933919;28;20028;-76
2021/07/29 08:14:16;;;;;;;2.47;2.28;;;20.40;71.60;;;;;;4944206;28;20827;-76
2021/07/29 08:16:42;;;;;;;3.47;2.60;;;20.50;71.90;;;;;;4941851;28;20094;-75
2021/07/29 08:19:08;;;;;;;2.83;2.17;;;20.60;71.40;;;;;;4956050;28;20035;-76
2021/07/29 08:21:34;;;;;;;3.42;2.65;;;20.70;70.70;;;;;;4940252;28;20068;-74
2021/07/29 08:24:00;;;;;;;2.33;2.13;;;20.80;68.80;;;;;;4947860;28;20062;-74
2021/07/29 08:26:25;;;;;;;3.60;2.17;;;20.90;69.80;;;;;;4946693;28;20058;-75
2021/07/29 08:28:52;;;;;;;2.97;2.22;;;20.90;70.20;;;;;;4943368;28;20046;-74
2021/07/29 08:31:19;;;;;;;3.10;2.40;;;21.00;69.50;;;;;;4951221;28;20038;-75
2021/07/29 08:33:45;;;;;;;3.28;2.08;;;21.10;68.90;;;;;;4965164;28;20046;-75
2021/07/29 08:36:19;;;;;;;3.53;1.90;;;21.20;69.20;;;;;;4963767;28;20023;-75
2021/07/29 08:38:47;;;;;;;2.70;2.50;;;21.30;70.10;;;;;;4966997;28;20031;-74
2021/07/29 08:41:15;;;;;;;2.40;2.20;;;21.40;68.80;;;;;;4961662;28;20122;-73
2021/07/29 08:43:41;;;;;;;3.15;2.28;;;21.30;66.60;;;;;;4964349;28;20497;-74
2021/07/29 08:46:08;;;;;;;3.72;2.28;;;21.20;67.10;;;;;;4965901;28;20069;-74
2021/07/29 08:48:36;;;;;;;3.25;2.50;;;21.30;69.20;;;;;;4965134;28;20099;-76
2021/07/29 08:51:03;;;;;;;3.80;2.40;;;21.30;67.90;;;;;;4966237;28;20081;-74
2021/07/29 08:53:28;;;;;;;2.80;2.50;;;21.40;67.30;;;;;;4962564;28;20118;-74
2021/07/29 08:55:55;;;;;;;4.93;2.70;;;21.30;67.40;;;;;;4964499;28;20405;-74
2021/07/29 08:58:21;;;;;;;2.47;2.13;;;21.30;67.40;;;;;;4967000;28;20023;-75
2021/07/29 09:01:07;;;;;;;2.85;2.20;;;21.60;66.10;;;;;;4960292;28;20106;-74
2021/07/29 09:03:34;;;;;;;4.00;2.20;;;21.60;65.30;;;;;;4962127;28;20066;-76
2021/07/29 09:06:11;;;;;;;3.70;2.20;;;21.60;63.30;;;;;;4963365;28;20030;-75
2021/07/29 09:08:46;;;;;;;4.03;2.50;;;21.60;65.30;;;;;;4968452;28;20048;-74
2021/07/29 09:11:37;;;;;;;4.53;2.53;;;21.70;65.70;;;;;;4964096;28;20618;-75
2021/07/29 09:14:06;;;;;;;2.97;2.50;;;21.70;65.50;;;;;;4958661;28;20452;-74
2021/07/29 09:16:39;;;;;;;4.55;2.45;;;21.60;64.20;;;;;;4965440;28;20645;-75
2021/07/29 09:19:05;;;;;;;3.78;2.53;;;21.60;65.30;;;;;;4964743;28;20054;-74
2021/07/29 09:21:31;;;;;;;2.80;2.20;;;21.60;65.30;;;;;;4965858;28;20026;-75
2021/07/29 09:24:08;;;;;;;3.53;2.58;;;21.60;65.40;;;;;;4964397;28;20028;-74
2021/07/29 09:26:59;;;;;;;5.23;2.60;;;21.60;67.20;;;;;;4963430;28;20093;-75
2021/07/29 09:29:29;;;;;;;4.80;2.60;;;21.70;68.10;;;;;;4994809;28;20034;-75
2021/07/29 09:32:11;;;;;;;4.72;2.72;;;21.70;65.50;;;;;;4992770;28;20457;-74
2021/07/29 09:34:43;;;;;;;3.50;2.40;;;21.60;66.90;;;;;;4959782;28;20022;-75
2021/07/29 09:37:10;;;;;;;2.78;2.40;;;21.60;67.10;;;;;;4969428;28;20023;-76
2021/07/29 09:39:36;;;;;;;2.67;2.35;;;21.50;67.40;;;;;;4966136;28;20430;-75
2021/07/29 09:42:19;;;;;;;4.50;2.60;;;21.40;64.80;;;;;;4963084;28;20031;-75
2021/07/29 09:44:48;;;;;;;4.20;2.20;;;21.30;65.10;;;;;;4960120;28;20047;-76
2021/07/29 09:47:13;;;;;;;3.78;2.30;;;21.20;67.30;;;;;;4968259;28;20550;-76
2021/07/29 09:49:40;;;;;;;3.60;2.30;;;21.30;67.90;;;;;;4965187;28;20043;-76
2021/07/29 09:52:06;;;;;;;3.35;2.90;;;21.20;66.70;;;;;;4964447;28;20059;-76
2021/07/29 09:54:35;;;;;;;2.67;2.30;;;21.20;68.30;;;;;;4965212;28;20075;-76
2021/07/29 09:57:01;;;;;;;2.80;2.40;;;21.30;69.40;;;;;;4965867;28;20529;-76
2021/07/29 09:59:26;;;;;;;3.15;2.58;;;21.40;68.00;;;;;;4966326;28;20031;-75
2021/07/29 10:01:53;;;;;;;2.90;2.33;;;21.30;67.60;;;;;;4958269;28;20035;-75
2021/07/29 10:04:27;;;;;;;3.33;2.20;;;21.40;66.90;;;;;;4963195;28;20025;-75
2021/07/29 10:06:56;;;;;;;3.35;2.90;;;21.50;68.10;;;;;;4960231;28;20031;-76
2021/07/29 10:09:22;;;;;;;5.32;3.03;;;21.70;67.80;;;;;;4969989;28;20018;-75
2021/07/29 10:11:54;;;;;;;4.80;2.97;;;21.80;67.30;;;;;;4955723;28;20513;-75
2021/07/29 10:14:46;;;;;;;3.42;2.45;;;22.00;67.70;;;;;;4951510;28;20595;-75
2021/07/29 10:17:12;;;;;;;2.88;2.58;;;22.10;63.90;;;;;;4954396;28;20046;-75
2021/07/29 10:20:12;;;;;;;3.97;2.63;;;22.30;66.70;;;;;;4954755;28;20039;-75
2021/07/29 10:22:38;;;;;;;2.70;2.50;;;22.50;61.50;;;;;;4952000;28;20030;-75
2021/07/29 10:25:04;;;;;;;5.18;2.90;;;22.50;64.40;;;;;;4957973;28;20344;-75
2021/07/29 10:27:29;;;;;;;3.08;2.55;;;22.60;64.40;;;;;;4959042;28;20840;-75
2021/07/29 10:30:20;;;;;;;3.92;3.30;;;22.60;63.20;;;;;;4958446;28;20038;-75
2021/07/29 10:32:48;;;;;;;3.75;2.70;;;22.60;61.50;;;;;;4954313;28;20038;-75
2021/07/29 10:35:25;;;;;;;;;;;22.70;63.60;;;;;;4961446;28;20027;-75
2021/07/29 10:37:54;;;;;;;4.05;2.63;;;22.80;61.40;;;;;;4967540;28;19910;-75
2021/07/29 10:40:39;;;;;;;3.20;2.80;;;22.90;62.10;;;;;;4963265;28;20027;-75
2021/07/29 10:43:23;;;;;;;4.75;2.63;;;23.10;63.00;;;;;;4968950;28;20026;-75
2021/07/29 10:45:57;;;;;;;3.78;2.80;;;23.10;63.70;;;;;;4968375;28;20591;-75
2021/07/29 10:48:42;;;;;;;5.43;2.65;;;23.20;62.90;;;;;;4967467;28;20034;-75
2021/07/29 10:51:11;;;;;;;3.55;2.45;;;23.10;63.90;;;;;;4961522;28;21621;-75
2021/07/29 10:53:40;;;;;;;3.08;2.70;;;23.10;64.60;;;;;;4962719;28;20033;-74
2021/07/29 10:56:12;;;;;;;4.05;2.90;;;23.10;62.60;;;;;;4966333;28;20058;-74
2021/07/29 10:58:42;;;;;;;6.82;2.90;;;23.10;61.20;;;;;;4965705;28;20026;-75
2021/07/29 11:01:11;;;;;;;3.25;2.70;;;23.10;63.10;;;;;;4966450;28;20038;-75
2021/07/29 11:03:50;;;;;;;3.40;2.40;;;23.10;63.80;;;;;;4967970;28;20086;-75
2021/07/29 11:06:37;;;;;;;3.00;2.70;;;23.30;63.80;;;;;;4970463;28;20023;-75
2021/07/29 11:09:18;;;;;;;4.63;2.95;;;23.30;62.80;;;;;;4961271;28;20042;-75
2021/07/29 11:11:46;;;;;;;4.25;2.83;;;23.10;61.20;;;;;;4957816;28;20050;-75
2021/07/29 11:14:14;;;;;;;4.07;2.72;;;23.10;61.70;;;;;;4980538;28;20043;-75
2021/07/29 11:16:40;;;;;;;3.55;2.80;;;23.20;63.60;;;;;;4964081;28;20049;-75
2021/07/29 11:19:07;;;;;;;4.20;3.08;;;23.10;61.70;;;;;;4968876;28;20035;-75
2021/07/29 11:21:33;;;;;;;3.97;2.95;;;23.20;63.10;;;;;;4967173;28;20027;-75
2021/07/29 11:23:59;;;;;;;4.15;3.50;;;23.30;62.10;;;;;;4967102;28;20062;-74
2021/07/29 11:26:26;;;;;;;3.42;2.88;;;23.30;60.80;;;;;;4966695;28;20054;-75
2021/07/29 11:29:09;;;;;;;4.43;3.03;;;23.20;62.80;;;;;;4968493;28;20019;-75
2021/07/29 11:31:36;;;;;;;4.45;2.65;;;23.30;62.90;;;;;;4965859;28;20042;-75
2021/07/29 11:34:02;;;;;;;5.22;2.80;;;23.40;62.00;;;;;;4967639;28;20030;-74
2021/07/29 11:36:29;;;;;;;4.22;2.78;;;23.40;60.30;;;;;;4967687;28;20395;-75
2021/07/29 11:39:06;;;;;;;5.55;3.22;;;23.40;60.40;;;;;;4968855;28;20023;-74
2021/07/29 11:41:53;;;;;;;3.58;2.80;;;23.40;61.90;;;;;;4966247;28;20173;-75
2021/07/29 11:44:20;;;;;;;3.30;2.97;;;23.30;63.00;;;;;;4963407;28;20038;-75
2021/07/29 11:46:56;;;;;;;3.20;2.72;;;23.10;60.40;;;;;;4969136;28;20045;-75
2021/07/29 11:49:22;;;;;;;3.33;2.60;;;23.00;60.90;;;;;;4968839;28;20031;-74
2021/07/29 11:52:09;;;;;;;3.17;2.70;;;22.90;61.30;;;;;;4965128;28;20122;-75
2021/07/29 11:54:35;;;;;;;3.47;2.63;;;22.90;63.80;;;;;;4966521;28;20394;-75
2021/07/29 11:57:02;;;;;;;3.55;2.92;;;23.00;62.20;;;;;;4961843;28;20022;-75
2021/07/29 11:59:41;;;;;;;3.58;2.65;;;23.00;63.00;;;;;;4966574;28;20038;-75
2021/07/29 12:02:09;;;;;;;4.90;3.15;;;23.00;62.30;;;;;;4965754;28;20027;-76
2021/07/29 12:04:38;;;;;;;5.22;2.83;;;23.00;62.60;;;;;;4968950;28;20031;-76
2021/07/29 12:07:05;;;;;;;5.15;2.85;;;23.00;58.40;;;;;;4969339;28;21789;-76
2021/07/29 12:09:35;;;;;;;3.92;2.83;;;23.00;60.50;;;;;;4961238;28;20021;-76
2021/07/29 12:12:01;;;;;;;3.70;3.15;;;22.80;60.80;;;;;;4966374;28;20023;-74
2021/07/29 12:14:28;;;;;;;5.93;3.00;;;22.80;62.50;;;;;;4967805;28;20023;-75
2021/07/29 12:16:55;;;;;;;3.72;2.97;;;22.90;64.30;;;;;;4968416;28;20026;-75
2021/07/29 12:19:22;;;;;;;4.13;2.70;;;23.00;62.50;;;;;;4966252;28;20035;-75
2021/07/29 12:21:49;;;;;;;4.72;2.72;;;23.10;62.00;;;;;;4968315;28;20054;-75
2021/07/29 12:24:15;;;;;;;3.83;3.17;;;23.20;61.80;;;;;;4963224;28;20611;-75
2021/07/29 12:27:01;;;;;;;3.30;3.00;;;23.30;60.20;;;;;;4969313;28;20026;-75
2021/07/29 12:29:44;;;;;;;3.88;2.78;;;23.40;63.20;;;;;;4968357;28;20473;-75
2021/07/29 12:32:31;;;;;;;5.30;2.80;;;23.40;62.50;;;;;;4966643;28;20572;-75
2021/07/29 12:34:57;;;;;;;4.10;3.25;;;23.40;58.30;;;;;;4968505;28;20513;-77
2021/07/29 12:37:36;;;;;;;4.95;3.00;;;23.40;57.00;;;;;;4968188;28;20026;-75
2021/07/29 12:40:24;;;;;;;5.93;3.33;;;23.50;59.90;;;;;;4964734;28;20085;-75
2021/07/29 12:42:49;;;;;;;3.30;2.75;;;23.50;58.30;;;;;;4965737;28;20034;-75
2021/07/29 12:45:15;;;;;;;5.35;3.50;;;23.50;57.80;;;;;;4968109;28;20043;-75
2021/07/29 12:47:42;;;;;;;4.47;2.92;;;23.50;59.20;;;;;;4966582;28;20544;-75
2021/07/29 12:50:08;;;;;;;3.63;3.05;;;23.50;58.40;;;;;;4967270;28;20497;-75
2021/07/29 12:52:37;;;;;;;4.63;3.40;;;23.50;58.00;;;;;;4964768;28;20027;-75
2021/07/29 12:55:07;;;;;;;3.80;3.03;;;23.60;59.80;;;;;;4966383;28;20401;-75